Terminal Aerodrome Forecast
Issued by NWS

Home | Current Version | Previous Version | Text Only | Print | Product List | Glossary On
Versions: 1 2 3 4 5 6 7 8 9 10 11 12 13 14 15 16 17 18 19 20 21 22 23 24 25 26 27 28 29
000
FTPA31 PHFO 012300 RRA
TAFOGG
TAF
PHOG 012342Z 0200/0224 06020G28KT P6SM VCSH FEW025 BKN040
     FM020700 05013KT P6SM SCT050
     FM022000 05020G28KT P6SM SCT025 BKN040
      AMD LTD TO WX VIS AND WIND 0209/0216=

USA.gov is the U.S. government's official web portal to all federal, state and local government web resources and services.